Time;durP1;ratioP1;P1;durP2;ratioP2;P2;SDS_P1;SDS_P2;PMS_P1;PMS_P2;Temp;Humidity;BMP_temperature;BMP_pressure;BME280_temperature;BME280_humidity;BME280_pressure;Samples;Min_cycle;Max_cycle;Signal;HPM_P1;HPM_P2
2022/07/11 00:01:34;;;;;;;4.50;4.10;;;21.40;82.20;;;;;;5011071;28;20205;-74
2022/07/11 00:04:00;;;;;;;4.80;4.40;;;21.40;82.70;;;;;;5015524;28;20255;-74
2022/07/11 00:06:25;;;;;;;4.37;4.07;;;21.40;82.70;;;;;;5014168;28;20231;-73
2022/07/11 00:08:51;;;;;;;11.03;5.40;;;21.40;82.50;;;;;;5015865;28;20685;-72
2022/07/11 00:11:17;;;;;;;5.07;4.67;;;21.40;83.00;;;;;;5014719;28;20173;-73
2022/07/11 00:13:42;;;;;;;4.50;4.10;;;21.40;82.90;;;;;;5013439;28;20199;-73
2022/07/11 00:16:08;;;;;;;7.23;5.43;;;21.40;82.80;;;;;;5013477;28;20635;-72
2022/07/11 00:18:33;;;;;;;4.90;4.50;;;21.40;83.00;;;;;;5003017;28;20593;-71
2022/07/11 00:20:59;;;;;;;4.57;4.17;;;21.40;83.10;;;;;;5015423;28;20665;-70
2022/07/11 00:23:24;;;;;;;4.37;3.97;;;21.30;83.80;;;;;;5015896;28;20184;-70
2022/07/11 00:25:50;;;;;;;4.70;4.30;;;21.40;84.10;;;;;;5003566;28;20570;-70
2022/07/11 00:28:16;;;;;;;4.90;4.50;;;21.40;84.10;;;;;;5018735;28;20567;-70
2022/07/11 00:30:41;;;;;;;4.70;4.30;;;21.40;84.30;;;;;;5016667;28;20930;-71
2022/07/11 00:33:07;;;;;;;5.80;4.00;;;21.30;84.00;;;;;;5015493;28;20440;-70
2022/07/11 00:35:32;;;;;;;4.33;3.93;;;21.20;84.40;;;;;;5016416;28;20276;-69
2022/07/11 00:37:58;;;;;;;5.30;4.47;;;21.20;84.70;;;;;;5014551;28;20191;-69
2022/07/11 00:40:24;;;;;;;4.63;4.23;;;21.10;84.80;;;;;;5015267;28;20215;-71
2022/07/11 00:42:49;;;;;;;5.00;4.50;;;21.10;84.90;;;;;;5011300;28;20533;-68
2022/07/11 00:45:15;;;;;;;5.87;4.90;;;21.10;85.30;;;;;;5013654;28;20192;-70
2022/07/11 00:47:41;;;;;;;4.60;4.20;;;21.00;85.80;;;;;;5016828;28;20614;-70
2022/07/11 00:50:07;;;;;;;4.63;4.23;;;21.00;85.90;;;;;;5012395;28;20295;-70
2022/07/11 00:52:34;;;;;;;4.77;4.30;;;21.00;86.20;;;;;;5013419;28;20264;-70
2022/07/11 00:54:59;;;;;;;4.40;4.00;;;21.00;86.60;;;;;;5015261;28;20443;-70
2022/07/11 00:57:25;;;;;;;6.40;4.43;;;21.00;86.60;;;;;;5015652;28;20502;-70
2022/07/11 00:59:51;;;;;;;4.87;4.47;;;21.10;86.60;;;;;;5013070;28;20690;-70
2022/07/11 01:02:17;;;;;;;4.50;4.03;;;21.00;87.20;;;;;;5012015;28;20184;-70
2022/07/11 01:04:42;;;;;;;4.67;4.27;;;20.90;87.50;;;;;;5013426;28;20490;-69
2022/07/11 01:07:08;;;;;;;4.70;4.30;;;20.90;87.80;;;;;;5015831;28;20231;-69
2022/07/11 01:09:34;;;;;;;6.23;4.50;;;20.90;88.10;;;;;;5016587;28;20233;-69
2022/07/11 01:12:00;;;;;;;4.70;4.23;;;20.90;88.60;;;;;;5013068;28;20185;-70
2022/07/11 01:14:25;;;;;;;6.00;4.13;;;20.80;89.90;;;;;;5012242;28;20189;-70
2022/07/11 01:16:51;;;;;;;4.50;4.20;;;20.80;89.40;;;;;;5013195;28;20439;-70
2022/07/11 01:19:17;;;;;;;4.33;4.00;;;20.70;90.00;;;;;;5012976;28;20594;-70
2022/07/11 01:21:46;;;;;;;4.87;4.40;;;20.70;90.10;;;;;;5013510;28;20185;-70
2022/07/11 01:24:11;;;;;;;5.13;3.80;;;20.70;90.50;;;;;;5017726;28;20449;-70
2022/07/11 01:26:37;;;;;;;4.20;3.80;;;20.80;90.40;;;;;;5015284;28;20947;-70
2022/07/11 01:29:10;;;;;;;4.30;3.90;;;20.90;90.40;;;;;;5014343;28;20196;-70
2022/07/11 01:31:41;;;;;;;4.30;4.00;;;20.80;90.70;;;;;;5012969;28;20432;-69
2022/07/11 01:34:06;;;;;;;4.93;4.33;;;20.70;90.90;;;;;;5010852;28;20419;-70
2022/07/11 01:36:32;;;;;;;5.30;4.80;;;20.80;91.10;;;;;;5019796;28;20438;-68
2022/07/11 01:38:58;;;;;;;4.83;4.43;;;20.70;91.20;;;;;;5014166;28;20197;-69
2022/07/11 01:41:24;;;;;;;4.37;3.97;;;20.70;91.20;;;;;;4995948;28;20192;-69
2022/07/11 01:43:50;;;;;;;4.67;4.17;;;20.80;91.20;;;;;;5016007;28;20177;-69
2022/07/11 01:46:16;;;;;;;4.90;4.30;;;20.90;91.20;;;;;;5014308;28;20459;-69
2022/07/11 01:48:42;;;;;;;4.10;3.80;;;20.90;91.10;;;;;;5014620;28;20708;-69
2022/07/11 01:51:08;;;;;;;5.83;4.07;;;20.90;91.10;;;;;;5018025;28;20455;-71
2022/07/11 01:53:34;;;;;;;5.43;4.33;;;20.90;91.40;;;;;;5016579;28;20646;-69
2022/07/11 01:55:59;;;;;;;4.70;4.30;;;20.80;91.50;;;;;;5013616;28;20196;-69
2022/07/11 01:58:25;;;;;;;5.00;3.93;;;20.80;91.70;;;;;;5016089;28;20196;-72
2022/07/11 02:00:50;;;;;;;4.13;3.77;;;20.90;91.70;;;;;;5013095;28;20184;-69
2022/07/11 02:03:16;;;;;;;5.30;4.30;;;20.90;91.60;;;;;;5000397;28;20247;-72
2022/07/11 02:05:42;;;;;;;5.90;3.97;;;20.90;91.70;;;;;;5002528;28;20188;-71
2022/07/11 02:08:14;;;;;;;4.70;4.30;;;20.90;92.00;;;;;;5010575;28;20223;-71
2022/07/11 02:10:45;;;;;;;4.40;4.00;;;20.90;91.60;;;;;;5012128;28;20565;-70
2022/07/11 02:13:13;;;;;;;6.43;4.27;;;20.90;91.60;;;;;;5017873;28;20635;-71
2022/07/11 02:15:39;;;;;;;7.43;4.20;;;21.00;91.60;;;;;;5011963;28;20881;-72
2022/07/11 02:18:05;;;;;;;5.20;4.40;;;20.90;92.00;;;;;;5011370;28;20452;-71
2022/07/11 02:20:31;;;;;;;4.90;4.03;;;20.90;92.00;;;;;;5017031;28;20462;-72
2022/07/11 02:22:58;;;;;;;8.10;4.20;;;20.90;92.20;;;;;;5010593;28;20439;-72
2022/07/11 02:25:24;;;;;;;4.30;3.90;;;20.90;92.10;;;;;;5012249;28;20447;-72
2022/07/11 02:27:50;;;;;;;4.20;3.80;;;20.80;92.50;;;;;;5009952;28;20455;-72
2022/07/11 02:30:15;;;;;;;4.50;4.10;;;20.80;92.50;;;;;;5011651;28;20467;-72
2022/07/11 02:32:42;;;;;;;4.73;4.33;;;20.80;92.60;;;;;;5013062;28;20189;-71
2022/07/11 02:35:08;;;;;;;4.33;3.80;;;20.70;92.60;;;;;;5012465;28;20339;-69
2022/07/11 02:37:34;;;;;;;4.90;4.50;;;20.70;92.90;;;;;;5014696;28;20434;-69
2022/07/11 02:39:59;;;;;;;4.40;4.00;;;20.70;92.90;;;;;;5011599;28;20505;-70
2022/07/11 02:42:25;;;;;;;5.00;4.50;;;20.80;92.90;;;;;;5014764;28;20192;-70
2022/07/11 02:44:50;;;;;;;4.37;3.83;;;20.80;92.90;;;;;;5013816;28;20193;-70
2022/07/11 02:47:16;;;;;;;4.20;3.90;;;20.80;92.70;;;;;;5012109;28;20222;-69
2022/07/11 02:49:42;;;;;;;4.97;4.57;;;20.80;92.80;;;;;;5011672;28;20639;-69
2022/07/11 02:52:08;;;;;;;4.47;4.07;;;20.70;93.10;;;;;;5011401;28;20192;-70
2022/07/11 02:54:33;;;;;;;5.70;5.20;;;20.60;93.30;;;;;;5014159;28;20191;-71
2022/07/11 02:56:59;;;;;;;4.73;4.33;;;20.60;93.40;;;;;;5012700;28;20435;-69
2022/07/11 02:59:25;;;;;;;5.20;4.50;;;20.70;93.30;;;;;;5012518;28;20215;-71
2022/07/11 03:01:50;;;;;;;5.30;4.80;;;20.70;93.50;;;;;;5011308;28;20189;-68
2022/07/11 03:04:16;;;;;;;4.37;3.97;;;20.70;93.70;;;;;;5009908;28;20224;-69
2022/07/11 03:06:42;;;;;;;8.17;4.20;;;20.60;93.70;;;;;;5010870;28;20197;-69
2022/07/11 03:09:09;;;;;;;5.20;4.50;;;20.70;93.60;;;;;;5011759;28;20226;-70
2022/07/11 03:11:35;;;;;;;5.83;4.13;;;20.70;93.50;;;;;;5012574;28;20216;-69
2022/07/11 03:14:01;;;;;;;7.23;3.87;;;20.80;93.40;;;;;;5011291;28;20966;-69
2022/07/11 03:16:28;;;;;;;4.90;4.40;;;20.80;93.50;;;;;;4995711;28;20447;-69
2022/07/11 03:18:54;;;;;;;4.70;4.30;;;20.80;93.50;;;;;;5013244;28;20585;-69
2022/07/11 03:21:19;;;;;;;5.57;3.97;;;20.80;93.90;;;;;;5012604;28;20881;-69
2022/07/11 03:23:45;;;;;;;4.10;3.80;;;20.80;93.50;;;;;;5011789;28;20471;-69
2022/07/11 03:26:11;;;;;;;4.50;4.10;;;20.70;93.90;;;;;;5010779;28;20809;-69
2022/07/11 03:28:37;;;;;;;4.40;4.00;;;20.80;93.90;;;;;;5013314;28;20562;-70
2022/07/11 03:31:03;;;;;;;4.60;4.20;;;20.70;93.90;;;;;;5012400;28;20229;-70
2022/07/11 03:33:28;;;;;;;7.80;4.57;;;20.60;94.30;;;;;;5016802;28;20442;-71
2022/07/11 03:35:54;;;;;;;4.60;4.20;;;20.60;94.40;;;;;;5011824;28;20427;-71
2022/07/11 03:38:20;;;;;;;4.73;4.33;;;20.60;94.40;;;;;;5014206;28;20184;-71
2022/07/11 03:40:47;;;;;;;4.33;3.93;;;20.70;94.60;;;;;;5015492;28;20728;-71
2022/07/11 03:43:13;;;;;;;4.73;3.70;;;20.60;94.50;;;;;;5014638;28;20866;-70
2022/07/11 03:45:39;;;;;;;4.67;4.23;;;20.70;94.70;;;;;;5017360;28;20452;-70
2022/07/11 03:48:05;;;;;;;5.03;4.53;;;20.70;94.70;;;;;;5015860;28;20553;-70
2022/07/11 03:50:31;;;;;;;4.60;3.77;;;20.70;94.60;;;;;;5017265;28;20479;-71
2022/07/11 03:52:58;;;;;;;6.30;4.07;;;20.70;94.50;;;;;;5018087;28;20558;-71
2022/07/11 03:55:24;;;;;;;3.93;3.63;;;20.70;94.60;;;;;;5016006;28;20231;-71
2022/07/11 03:57:49;;;;;;;5.30;4.80;;;20.70;94.60;;;;;;5017168;28;21401;-71
2022/07/11 04:00:16;;;;;;;6.60;4.17;;;20.70;94.60;;;;;;5015990;28;20594;-71
2022/07/11 04:02:41;;;;;;;3.93;3.63;;;20.80;94.70;;;;;;5017910;28;20196;-71
2022/07/11 04:05:07;;;;;;;4.70;4.07;;;20.80;94.70;;;;;;5015579;28;20457;-71
2022/07/11 04:07:33;;;;;;;5.67;4.67;;;20.70;95.00;;;;;;5014438;28;20205;-71
2022/07/11 04:09:58;;;;;;;4.93;4.53;;;20.70;95.00;;;;;;5014534;28;20232;-69
2022/07/11 04:12:24;;;;;;;6.60;4.40;;;20.70;95.10;;;;;;5019580;28;20231;-70
2022/07/11 04:14:50;;;;;;;5.17;4.67;;;20.60;95.50;;;;;;5014936;28;20657;-70
2022/07/11 04:17:16;;;;;;;5.00;4.60;;;20.50;96.00;;;;;;5015781;28;20826;-69
2022/07/11 04:19:45;;;;;;;5.50;4.23;;;20.40;96.10;;;;;;5016062;28;20584;-71
2022/07/11 04:22:11;;;;;;;4.87;4.37;;;20.40;96.60;;;;;;5021440;28;20595;-69
2022/07/11 04:24:37;;;;;;;5.97;4.10;;;20.30;97.00;;;;;;5016764;28;20450;-69
2022/07/11 04:27:02;;;;;;;4.80;4.37;;;20.30;97.20;;;;;;5016659;28;20214;-71
2022/07/11 04:29:28;;;;;;;5.00;4.50;;;20.30;97.40;;;;;;5017382;28;20463;-70
2022/07/11 04:31:53;;;;;;;5.63;4.00;;;20.30;97.70;;;;;;5013724;28;20177;-70
2022/07/11 04:34:19;;;;;;;5.00;4.10;;;20.40;97.70;;;;;;5015865;28;20200;-70
2022/07/11 04:36:45;;;;;;;4.47;4.07;;;20.50;97.80;;;;;;5014476;28;20185;-70
2022/07/11 04:39:11;;;;;;;6.70;5.27;;;20.40;98.00;;;;;;5017272;28;20219;-70
2022/07/11 04:41:37;;;;;;;4.40;4.00;;;20.40;98.20;;;;;;5015469;28;20570;-70
2022/07/11 04:44:03;;;;;;;5.20;4.70;;;20.30;98.60;;;;;;5016768;28;20453;-70
2022/07/11 04:46:29;;;;;;;5.10;4.60;;;20.40;98.70;;;;;;5012987;28;20773;-70
2022/07/11 04:48:55;;;;;;;5.33;4.83;;;20.40;98.60;;;;;;5014155;28;20222;-71
2022/07/11 04:51:21;;;;;;;6.93;4.20;;;20.40;98.60;;;;;;5013934;28;20192;-70
2022/07/11 04:53:47;;;;;;;5.30;4.80;;;20.40;98.60;;;;;;5001575;28;20554;-70
2022/07/11 04:56:13;;;;;;;5.20;4.70;;;20.30;98.60;;;;;;5015632;28;21052;-70
2022/07/11 04:58:39;;;;;;;5.10;4.60;;;20.30;99.10;;;;;;5015824;28;20436;-71
2022/07/11 05:01:04;;;;;;;5.80;4.10;;;20.30;99.20;;;;;;5014523;28;20441;-71
2022/07/11 05:03:32;;;;;;;5.30;4.77;;;20.30;99.60;;;;;;5016230;28;20192;-70
2022/07/11 05:05:57;;;;;;;4.93;4.43;;;20.30;99.80;;;;;;5014983;28;20191;-71
2022/07/11 05:08:23;;;;;;;5.43;4.67;;;20.40;99.60;;;;;;5018860;28;21071;-69
2022/07/11 05:10:49;;;;;;;5.90;5.30;;;20.40;99.60;;;;;;5016345;28;21183;-69
2022/07/11 05:13:15;;;;;;;5.27;4.70;;;20.30;99.60;;;;;;5014814;28;20172;-71
2022/07/11 05:15:40;;;;;;;5.50;5.00;;;20.20;99.90;;;;;;5016744;28;20180;-70
2022/07/11 05:18:06;;;;;;;7.00;5.23;;;20.20;99.90;;;;;;5015642;28;20271;-69
2022/07/11 05:20:32;;;;;;;5.63;5.13;;;20.10;99.90;;;;;;5015851;28;20671;-70
2022/07/11 05:22:58;;;;;;;9.23;5.60;;;20.10;99.90;;;;;;5017125;28;20184;-70
2022/07/11 05:25:24;;;;;;;7.03;5.60;;;20.30;99.90;;;;;;5017410;28;20505;-70
2022/07/11 05:27:50;;;;;;;6.00;5.17;;;20.20;99.90;;;;;;5015660;28;20479;-69
2022/07/11 05:30:16;;;;;;;6.33;4.83;;;20.30;99.90;;;;;;5003015;28;20460;-70
2022/07/11 05:32:41;;;;;;;5.47;4.97;;;20.30;99.90;;;;;;5013085;28;20185;-68
2022/07/11 05:35:07;;;;;;;9.20;4.80;;;20.50;99.40;;;;;;5014436;28;20189;-69
2022/07/11 05:37:33;;;;;;;6.80;5.43;;;20.50;98.80;;;;;;5014638;28;20185;-71
2022/07/11 05:39:58;;;;;;;5.50;5.00;;;20.50;98.60;;;;;;5001824;28;20556;-70
2022/07/11 05:42:24;;;;;;;5.43;4.90;;;20.40;98.80;;;;;;5014219;28;20176;-71
2022/07/11 05:44:50;;;;;;;6.30;4.90;;;20.40;98.80;;;;;;5012350;28;20184;-69
2022/07/11 05:47:16;;;;;;;5.37;4.23;;;20.30;98.90;;;;;;5014973;28;20215;-69
2022/07/11 05:49:42;;;;;;;5.17;4.50;;;20.30;99.30;;;;;;5015155;28;20215;-69
2022/07/11 05:52:08;;;;;;;4.97;4.50;;;20.50;99.00;;;;;;5016593;28;20435;-68
2022/07/11 05:54:34;;;;;;;4.90;4.50;;;20.50;98.80;;;;;;5014857;28;20176;-69
2022/07/11 05:57:03;;;;;;;5.00;4.50;;;20.70;98.50;;;;;;4999851;28;21027;-69
2022/07/11 05:59:29;;;;;;;8.70;5.30;;;20.80;98.10;;;;;;5016382;28;20542;-69
2022/07/11 06:01:55;;;;;;;5.63;5.10;;;20.80;97.90;;;;;;5012964;28;20431;-69
2022/07/11 06:04:21;;;;;;;5.47;5.00;;;20.70;98.10;;;;;;5014956;28;20427;-70
2022/07/11 06:06:46;;;;;;;5.87;5.37;;;20.80;97.90;;;;;;5011959;28;20180;-69
2022/07/11 06:09:12;;;;;;;6.03;5.17;;;20.70;98.40;;;;;;5016214;28;20215;-70
2022/07/11 06:11:38;;;;;;;6.67;5.07;;;20.70;98.60;;;;;;5011102;28;20526;-71
2022/07/11 06:14:05;;;;;;;7.70;5.70;;;20.60;98.80;;;;;;5013607;28;20441;-70
2022/07/11 06:16:31;;;;;;;7.53;4.80;;;20.70;98.50;;;;;;5016454;28;20173;-70
2022/07/11 06:18:57;;;;;;;6.10;5.50;;;20.50;98.70;;;;;;5015670;28;20457;-70
2022/07/11 06:21:22;;;;;;;5.57;5.07;;;20.60;98.90;;;;;;5015233;28;20187;-71
2022/07/11 06:23:48;;;;;;;5.70;5.03;;;20.60;98.90;;;;;;5015543;28;20177;-69
2022/07/11 06:26:15;;;;;;;5.73;5.13;;;20.60;99.20;;;;;;5014642;28;20271;-69
2022/07/11 06:28:41;;;;;;;6.00;5.47;;;20.70;99.20;;;;;;5012808;28;20487;-69
2022/07/11 06:31:06;;;;;;;5.67;5.17;;;20.70;99.10;;;;;;5012528;28;20423;-69
2022/07/11 06:33:32;;;;;;;5.20;4.70;;;20.60;99.50;;;;;;5010363;28;20436;-70
2022/07/11 06:35:57;;;;;;;7.73;5.57;;;20.60;99.80;;;;;;5010744;28;20263;-69
2022/07/11 06:38:23;;;;;;;6.00;5.50;;;20.70;99.80;;;;;;5012885;28;20261;-70
2022/07/11 06:40:49;;;;;;;6.70;5.33;;;20.90;99.50;;;;;;5013734;28;20180;-71
2022/07/11 06:43:15;;;;;;;7.00;5.20;;;21.00;99.30;;;;;;5011273;28;20185;-71
2022/07/11 06:45:40;;;;;;;8.53;5.37;;;21.00;99.30;;;;;;5012629;28;20264;-72
2022/07/11 06:48:06;;;;;;;5.73;5.00;;;21.20;99.10;;;;;;5010302;28;20197;-70
2022/07/11 06:50:32;;;;;;;6.30;5.70;;;21.30;98.80;;;;;;5012744;28;20244;-72
2022/07/11 06:52:58;;;;;;;6.27;5.10;;;21.40;98.30;;;;;;5013996;28;20466;-72
2022/07/11 06:55:24;;;;;;;4.90;4.30;;;21.50;98.30;;;;;;5014469;28;20209;-71
2022/07/11 06:57:52;;;;;;;7.70;5.53;;;21.50;98.50;;;;;;5013358;28;20247;-70
2022/07/11 07:00:18;;;;;;;14.60;10.47;;;21.60;98.30;;;;;;5011900;28;20204;-70
2022/07/11 07:02:44;;;;;;;10.20;5.47;;;21.70;97.80;;;;;;5012564;28;20428;-70
2022/07/11 07:05:10;;;;;;;5.80;4.60;;;21.80;97.50;;;;;;5012550;28;20748;-70
2022/07/11 07:07:36;;;;;;;12.80;9.60;;;21.80;97.20;;;;;;5011716;28;20479;-71
2022/07/11 07:10:02;;;;;;;7.93;6.07;;;21.90;97.10;;;;;;5014275;28;20444;-71
2022/07/11 07:12:27;;;;;;;11.20;4.80;;;21.90;97.00;;;;;;5016823;28;20669;-71
2022/07/11 07:14:53;;;;;;;6.13;5.53;;;21.90;96.90;;;;;;5016904;28;20446;-71
2022/07/11 07:17:19;;;;;;;5.93;5.13;;;21.90;96.50;;;;;;5013623;28;20209;-71
2022/07/11 07:19:45;;;;;;;5.43;4.93;;;21.90;96.30;;;;;;5019100;28;20973;-71
2022/07/11 07:22:14;;;;;;;6.10;5.50;;;21.90;96.50;;;;;;5018216;28;20994;-71
2022/07/11 07:24:40;;;;;;;5.40;4.80;;;21.90;96.20;;;;;;5013855;28;20186;-70
2022/07/11 07:27:06;;;;;;;8.73;4.83;;;21.90;96.30;;;;;;5016884;28;20964;-71
2022/07/11 07:29:32;;;;;;;5.07;4.57;;;21.90;96.40;;;;;;5014526;28;20207;-71
2022/07/11 07:31:59;;;;;;;6.00;4.87;;;21.90;96.20;;;;;;5015067;28;20288;-70
2022/07/11 07:34:24;;;;;;;6.13;4.13;;;21.90;96.30;;;;;;5014399;28;20534;-71
2022/07/11 07:36:50;;;;;;;6.13;4.77;;;22.00;96.30;;;;;;5015099;28;20542;-71
2022/07/11 07:39:15;;;;;;;15.80;10.90;;;21.90;96.20;;;;;;5017112;28;20218;-70
2022/07/11 07:41:41;;;;;;;5.53;5.03;;;22.00;96.10;;;;;;5017535;28;20185;-71
2022/07/11 07:44:07;;;;;;;5.10;4.60;;;22.00;96.00;;;;;;5013360;28;20165;-70
2022/07/11 07:46:33;;;;;;;8.07;7.37;;;22.00;95.90;;;;;;5015241;28;20478;-70
2022/07/11 07:48:59;;;;;;;7.63;5.60;;;22.00;95.80;;;;;;5018414;28;20604;-70
2022/07/11 07:51:25;;;;;;;4.90;4.40;;;22.00;95.60;;;;;;5016317;28;20454;-70
2022/07/11 07:53:50;;;;;;;5.87;4.33;;;22.00;95.70;;;;;;5018756;28;20997;-70
2022/07/11 07:56:16;;;;;;;5.60;5.03;;;22.00;95.60;;;;;;5014878;28;20432;-70
2022/07/11 07:58:42;;;;;;;6.87;4.80;;;22.10;95.60;;;;;;5017566;28;20645;-69
2022/07/11 08:03:52;;;;;;;7.40;5.00;;;22.10;95.60;;;;;;5020008;28;20673;-69
2022/07/11 08:06:18;;;;;;;7.10;4.80;;;22.20;95.40;;;;;;5015053;28;20444;-69
2022/07/11 08:08:44;;;;;;;5.87;5.37;;;22.30;95.20;;;;;;5017669;28;20568;-69
2022/07/11 08:11:10;;;;;;;5.93;5.33;;;22.30;95.00;;;;;;5018712;28;20518;-71
2022/07/11 08:13:37;;;;;;;6.87;5.30;;;22.30;94.80;;;;;;5016437;28;20223;-69
2022/07/11 08:16:04;;;;;;;5.83;5.23;;;22.30;95.00;;;;;;5016674;28;20177;-69
2022/07/11 08:18:30;;;;;;;7.40;5.73;;;22.40;94.50;;;;;;5018065;28;20454;-69
2022/07/11 08:20:58;;;;;;;6.00;4.70;;;22.40;94.00;;;;;;5017947;28;20419;-69
2022/07/11 08:23:24;;;;;;;7.20;4.40;;;22.40;94.40;;;;;;5012517;28;20293;-69
2022/07/11 08:25:49;;;;;;;15.00;11.23;;;22.50;94.30;;;;;;5013218;28;20455;-69
2022/07/11 08:28:15;;;;;;;7.33;5.93;;;22.50;94.30;;;;;;5018814;28;20238;-69
2022/07/11 08:30:40;;;;;;;6.97;5.97;;;22.50;94.20;;;;;;5017713;28;20232;-69
2022/07/11 08:33:06;;;;;;;5.27;4.20;;;22.60;94.00;;;;;;5015348;28;20268;-69
2022/07/11 08:35:32;;;;;;;5.17;4.67;;;22.60;93.90;;;;;;5016403;28;20227;-69
2022/07/11 08:37:57;;;;;;;5.80;4.57;;;22.70;93.80;;;;;;5013851;28;20189;-70
2022/07/11 08:40:23;;;;;;;5.80;4.37;;;22.60;93.80;;;;;;5010802;28;20888;-69
2022/07/11 08:42:49;;;;;;;4.30;3.90;;;22.70;93.50;;;;;;5014786;28;20191;-68
2022/07/11 08:45:15;;;;;;;4.60;4.20;;;22.60;93.40;;;;;;5018345;28;20192;-72
2022/07/11 08:47:42;;;;;;;5.37;4.87;;;22.70;93.10;;;;;;5020193;28;20362;-71
2022/07/11 08:50:10;;;;;;;5.00;4.50;;;22.80;93.00;;;;;;5016056;28;20971;-70
2022/07/11 08:52:37;;;;;;;6.23;4.10;;;22.80;92.80;;;;;;5013008;28;20432;-70
2022/07/11 08:55:06;;;;;;;5.03;4.20;;;22.70;92.90;;;;;;5015231;28;20543;-70
2022/07/11 08:57:33;;;;;;;4.50;4.10;;;22.80;92.90;;;;;;5021368;28;20427;-69
2022/07/11 09:00:00;;;;;;;9.50;5.13;;;22.80;92.80;;;;;;5016415;28;20448;-70
2022/07/11 09:02:28;;;;;;;5.30;4.40;;;22.80;92.70;;;;;;5015018;28;20432;-70
2022/07/11 09:04:54;;;;;;;5.00;4.13;;;22.90;92.60;;;;;;5017493;28;20427;-70
2022/07/11 09:07:19;;;;;;;5.93;4.50;;;23.00;92.80;;;;;;5014028;28;20468;-68
2022/07/11 09:09:45;;;;;;;7.17;4.30;;;23.10;92.80;;;;;;5017121;28;20749;-70
2022/07/11 09:12:12;;;;;;;7.13;4.20;;;23.20;92.10;;;;;;5017851;28;20187;-70
2022/07/11 09:14:38;;;;;;;8.53;4.40;;;23.20;92.00;;;;;;5012243;28;20173;-70
2022/07/11 09:17:05;;;;;;;6.17;4.40;;;23.30;91.80;;;;;;5013053;28;20447;-69
2022/07/11 09:19:39;;;;;;;4.90;4.40;;;23.50;91.60;;;;;;5013273;28;20203;-70
2022/07/11 09:27:45;;;;;;;4.40;4.10;;;23.70;91.70;;;;;;5015578;28;20991;-70
2022/07/11 09:30:29;;;;;;;4.43;4.03;;;23.90;91.60;;;;;;5015857;28;20456;-69
2022/07/11 09:33:00;;;;;;;4.40;4.00;;;24.00;90.60;;;;;;5015555;28;20583;-69
2022/07/11 09:35:33;;;;;;;4.90;4.00;;;24.10;90.30;;;;;;5013828;28;20937;-69
2022/07/11 09:38:01;;;;;;;6.07;4.00;;;24.30;90.30;;;;;;5014193;28;20593;-68
2022/07/11 09:40:27;;;;;;;5.90;4.33;;;24.40;90.40;;;;;;5012006;28;20505;-69
2022/07/11 09:42:55;;;;;;;5.17;4.53;;;24.50;90.40;;;;;;5014844;28;20920;-69
2022/07/11 09:45:22;;;;;;;4.13;3.83;;;24.50;89.10;;;;;;5014881;28;20988;-69
2022/07/11 09:47:49;;;;;;;5.87;4.10;;;24.60;89.20;;;;;;5014410;28;20866;-68
2022/07/11 09:50:19;;;;;;;4.83;4.43;;;24.60;89.00;;;;;;5013435;28;20475;-68
2022/07/11 09:53:03;;;;;;;5.53;5.03;;;24.70;88.20;;;;;;4998422;28;20474;-71
2022/07/11 09:55:34;;;;;;;4.47;4.17;;;24.80;87.90;;;;;;5013060;28;21000;-71
2022/07/11 09:58:06;;;;;;;4.27;3.90;;;24.80;86.10;;;;;;5010208;28;20503;-70
2022/07/11 10:00:33;;;;;;;4.00;3.70;;;24.90;85.60;;;;;;5013888;28;20464;-71
2022/07/11 10:03:00;;;;;;;3.50;3.20;;;24.80;85.60;;;;;;5014791;28;20435;-72
2022/07/11 10:05:26;;;;;;;6.20;4.27;;;24.70;86.10;;;;;;5012487;28;20830;-72
2022/07/11 10:07:52;;;;;;;4.70;4.30;;;24.70;86.00;;;;;;5013886;28;20865;-70
2022/07/11 10:10:18;;;;;;;4.73;4.10;;;24.70;86.30;;;;;;5014681;28;20448;-70
2022/07/11 10:12:46;;;;;;;5.07;4.40;;;24.80;86.10;;;;;;5014291;28;20200;-71
2022/07/11 10:15:15;;;;;;;4.10;3.80;;;24.80;86.60;;;;;;5013970;28;20442;-71
2022/07/11 10:18:07;;;;;;;4.27;3.90;;;24.80;87.90;;;;;;5011290;28;20463;-71
2022/07/11 10:20:51;;;;;;;4.93;4.50;;;24.80;87.30;;;;;;5012177;28;20463;-71
2022/07/11 10:23:33;;;;;;;3.80;3.50;;;24.90;87.50;;;;;;5012031;28;20448;-71
2022/07/11 10:26:16;;;;;;;10.03;4.13;;;24.90;87.30;;;;;;5010319;28;20443;-71
2022/07/11 10:28:48;;;;;;;4.60;4.20;;;24.90;88.00;;;;;;5015980;28;20862;-69
2022/07/11 10:31:24;;;;;;;4.57;4.10;;;25.10;86.30;;;;;;5013946;28;20427;-68
2022/07/11 10:34:15;;;;;;;3.73;3.43;;;25.20;84.90;;;;;;5011627;28;20935;-68
2022/07/11 10:36:42;;;;;;;3.40;3.10;;;25.20;83.60;;;;;;5014855;28;20431;-68
2022/07/11 10:39:24;;;;;;;3.30;3.00;;;25.30;82.70;;;;;;5012773;28;20520;-71
2022/07/11 10:41:50;;;;;;;3.87;3.57;;;25.30;81.60;;;;;;5017554;28;20518;-71
2022/07/11 10:44:17;;;;;;;4.10;3.80;;;25.30;81.40;;;;;;5015271;28;20807;-71
2022/07/11 10:46:43;;;;;;;4.13;3.50;;;25.40;81.60;;;;;;5010383;28;20428;-71
2022/07/11 10:49:20;;;;;;;5.20;3.30;;;25.50;80.70;;;;;;5017750;28;20548;-71
2022/07/11 10:52:04;;;;;;;4.37;3.10;;;25.50;80.50;;;;;;5013258;28;20472;-72
2022/07/11 10:54:42;;;;;;;3.63;3.33;;;25.50;80.30;;;;;;5011991;28;20507;-71
2022/07/11 10:57:26;;;;;;;3.50;3.20;;;25.50;80.80;;;;;;5012094;28;20431;-71
2022/07/11 10:59:59;;;;;;;3.57;3.27;;;25.70;81.00;;;;;;5011855;28;21106;-71
2022/07/11 11:02:26;;;;;;;6.13;4.00;;;25.90;80.00;;;;;;5014890;28;20432;-71
2022/07/11 11:05:01;;;;;;;3.97;3.57;;;25.90;79.70;;;;;;5015671;28;20435;-71
2022/07/11 11:07:33;;;;;;;4.00;3.67;;;26.00;78.90;;;;;;5011977;28;20458;-71
2022/07/11 11:10:01;;;;;;;3.80;3.40;;;26.10;78.20;;;;;;5016593;28;20533;-71
2022/07/11 11:13:04;;;;;;;4.03;3.30;;;26.10;78.40;;;;;;5000098;28;20451;-71
2022/07/11 11:15:54;;;;;;;4.33;3.40;;;26.10;78.20;;;;;;5010790;28;20800;-71
2022/07/11 11:18:25;;;;;;;4.33;3.80;;;26.10;78.20;;;;;;5013208;28;20446;-71
2022/07/11 11:21:02;;;;;;;4.50;4.10;;;26.20;77.30;;;;;;5010067;28;20423;-71
2022/07/11 11:23:32;;;;;;;3.80;3.50;;;26.20;76.70;;;;;;5014257;28;21011;-71
2022/07/11 11:26:06;;;;;;;5.17;3.20;;;26.20;77.00;;;;;;5016320;28;20419;-70
2022/07/11 11:28:32;;;;;;;3.67;3.37;;;26.30;77.70;;;;;;5012631;28;20462;-72
2022/07/11 11:31:00;;;;;;;4.23;3.07;;;26.40;78.90;;;;;;5013575;28;20720;-71
2022/07/11 11:33:27;;;;;;;3.83;2.80;;;26.60;78.40;;;;;;5011486;28;20260;-72
2022/07/11 11:36:07;;;;;;;3.97;3.37;;;26.50;77.70;;;;;;5004781;28;20453;-71
2022/07/11 11:38:37;;;;;;;3.70;3.37;;;26.60;77.90;;;;;;5004409;28;20515;-74
2022/07/11 11:41:05;;;;;;;3.93;3.63;;;27.00;76.70;;;;;;5006876;28;20531;-72
2022/07/11 11:43:31;;;;;;;3.80;2.90;;;27.30;76.00;;;;;;5008890;28;20467;-73
2022/07/11 11:45:57;;;;;;;3.77;3.47;;;27.40;74.90;;;;;;5009550;28;20475;-73
2022/07/11 11:48:32;;;;;;;3.63;3.37;;;27.40;74.30;;;;;;5008448;28;20585;-73
2022/07/11 11:51:04;;;;;;;5.43;3.17;;;27.50;73.80;;;;;;5009189;28;20188;-73
2022/07/11 11:53:43;;;;;;;3.30;3.00;;;27.70;74.10;;;;;;5012289;28;20784;-73
2022/07/11 11:56:16;;;;;;;4.73;3.33;;;28.10;73.80;;;;;;5006922;28;20439;-73
2022/07/11 11:58:46;;;;;;;3.60;3.30;;;28.30;72.10;;;;;;5011766;28;20523;-74
2022/07/11 12:01:12;;;;;;;3.17;2.87;;;28.40;71.80;;;;;;5014058;28;20428;-72
2022/07/11 12:03:54;;;;;;;4.10;3.20;;;28.50;71.50;;;;;;5012856;28;20475;-73
2022/07/11 12:06:26;;;;;;;3.93;3.30;;;28.90;70.40;;;;;;5010432;28;20471;-73
2022/07/11 12:08:52;;;;;;;6.90;3.50;;;29.60;69.80;;;;;;5018326;28;20495;-73
2022/07/11 12:11:18;;;;;;;3.10;2.80;;;30.90;68.00;;;;;;5002182;28;20492;-72
2022/07/11 12:13:44;;;;;;;3.40;2.87;;;33.00;65.60;;;;;;5015162;28;20435;-72
2022/07/11 12:18:59;;;;;;;3.47;3.00;;;33.30;57.20;;;;;;5014978;28;21006;-71
2022/07/11 12:21:25;;;;;;;5.17;3.50;;;32.90;57.00;;;;;;5016474;28;20474;-71
2022/07/11 12:23:51;;;;;;;5.90;3.20;;;32.40;57.30;;;;;;5014869;28;20438;-70
2022/07/11 12:26:16;;;;;;;4.67;3.00;;;31.90;57.40;;;;;;5015225;28;20188;-73
2022/07/11 12:29:05;;;;;;;3.70;2.70;;;31.40;57.50;;;;;;5015538;28;20861;-73
2022/07/11 12:31:44;;;;;;;3.53;2.93;;;31.00;58.10;;;;;;5014149;28;20208;-73
2022/07/11 12:34:11;;;;;;;6.87;3.23;;;30.50;59.00;;;;;;5012476;28;20414;-72
2022/07/11 12:36:36;;;;;;;4.50;2.90;;;30.60;59.50;;;;;;5017005;28;20454;-72
2022/07/11 12:39:04;;;;;;;3.50;3.20;;;30.40;59.90;;;;;;5010944;28;20460;-72
2022/07/11 12:41:30;;;;;;;4.40;2.90;;;30.00;60.70;;;;;;5012350;28;20216;-72
2022/07/11 12:46:41;;;;;;;3.63;3.00;;;30.40;59.90;;;;;;5012372;28;20435;-71
2022/07/11 12:49:09;;;;;;;4.00;3.40;;;31.30;58.70;;;;;;5011294;28;20838;-73
2022/07/11 12:51:39;;;;;;;3.57;3.27;;;31.10;58.30;;;;;;5013549;28;20448;-73
2022/07/11 12:54:12;;;;;;;2.80;2.60;;;30.70;58.80;;;;;;5012436;28;21140;-72
2022/07/11 12:56:38;;;;;;;3.40;3.10;;;30.60;59.40;;;;;;5015491;28;20809;-71
2022/07/11 12:59:05;;;;;;;4.23;3.37;;;30.20;59.60;;;;;;5013732;28;20452;-72
2022/07/11 13:01:32;;;;;;;3.50;3.20;;;29.90;59.80;;;;;;5012242;28;20892;-71